createdAt,value
2017-08-14T00:00:17.120Z,1017.78
2017-08-14T00:00:57.691Z,1017.81
2017-08-14T00:01:38.257Z,1017.82
2017-08-14T00:02:18.829Z,1017.79
2017-08-14T00:02:59.395Z,1017.86
2017-08-14T00:03:39.972Z,1017.82
2017-08-14T00:04:20.544Z,1017.86
2017-08-14T00:05:01.107Z,1017.83
2017-08-14T00:05:41.681Z,1017.85
2017-08-14T00:06:22.274Z,1017.87
2017-08-14T00:07:02.874Z,1017.89
2017-08-14T00:07:43.470Z,1017.85
2017-08-14T00:08:24.034Z,1017.86
2017-08-14T00:09:04.606Z,1017.86
2017-08-14T00:09:45.209Z,1017.86
2017-08-14T00:10:25.778Z,1017.86
2017-08-14T00:11:06.347Z,1017.87
2017-08-14T00:11:46.919Z,1017.83
2017-08-14T00:12:27.510Z,1017.85
2017-08-14T00:13:08.073Z,1017.85
2017-08-14T00:13:48.639Z,1017.87
2017-08-14T00:14:29.214Z,1017.91
2017-08-14T00:15:09.787Z,1017.85
2017-08-14T00:15:50.364Z,1017.81
2017-08-14T00:16:30.931Z,1017.86
2017-08-14T00:17:11.502Z,1017.85
2017-08-14T00:17:52.079Z,1017.84
2017-08-14T00:18:32.673Z,1017.83
2017-08-14T00:19:13.241Z,1017.87
2017-08-14T00:19:53.810Z,1017.85
2017-08-14T00:20:34.383Z,1017.84
2017-08-14T00:21:14.968Z,1017.84
2017-08-14T00:21:55.554Z,1017.85
2017-08-14T00:22:36.108Z,1017.84
2017-08-14T00:23:16.678Z,1017.86
2017-08-14T00:23:57.271Z,1017.86
2017-08-14T00:24:37.849Z,1017.83
2017-08-14T00:25:18.423Z,1017.87
2017-08-14T00:25:59.004Z,1017.83
2017-08-14T00:26:39.576Z,1017.87
2017-08-14T00:27:20.176Z,1017.89
2017-08-14T00:28:00.730Z,1017.88
2017-08-14T00:28:41.324Z,1017.9
2017-08-14T00:29:24.403Z,1017.86
2017-08-14T00:30:04.980Z,1017.88
2017-08-14T00:30:45.578Z,1017.91
2017-08-14T00:31:26.142Z,1017.92
2017-08-14T00:32:06.737Z,1017.91
2017-08-14T00:32:47.325Z,1017.89
2017-08-14T00:33:27.906Z,1017.9
2017-08-14T00:34:08.479Z,1017.9
2017-08-14T00:34:49.078Z,1017.91
2017-08-14T00:35:29.665Z,1017.9
2017-08-14T00:36:10.247Z,1017.93
2017-08-14T00:36:50.844Z,1017.87
2017-08-14T00:37:31.488Z,1017.89
2017-08-14T00:38:12.098Z,1017.86
2017-08-14T00:38:52.698Z,1017.86
2017-08-14T00:39:33.282Z,1017.85
2017-08-14T00:40:13.865Z,1017.86
2017-08-14T00:40:54.462Z,1017.85
2017-08-14T00:41:35.058Z,1017.9
2017-08-14T00:42:15.630Z,1017.85
2017-08-14T00:42:56.232Z,1017.88
2017-08-14T00:43:36.794Z,1017.84
2017-08-14T00:44:17.383Z,1017.83
2017-08-14T00:44:57.953Z,1017.86
2017-08-14T00:45:38.525Z,1017.82
2017-08-14T00:46:19.109Z,1017.86
2017-08-14T00:46:59.676Z,1017.9
2017-08-14T00:47:40.247Z,1017.85
2017-08-14T00:48:20.841Z,1017.89
2017-08-14T00:49:01.422Z,1017.86
2017-08-14T00:49:41.993Z,1017.86
2017-08-14T00:50:22.570Z,1017.89
2017-08-14T00:51:03.151Z,1017.88
2017-08-14T00:51:43.728Z,1017.85
2017-08-14T00:52:24.336Z,1017.87
2017-08-14T00:53:04.915Z,1017.84
2017-08-14T00:53:45.515Z,1017.84
2017-08-14T00:54:26.099Z,1017.85
2017-08-14T00:55:06.676Z,1017.89
2017-08-14T00:55:47.237Z,1017.86
2017-08-14T00:56:27.814Z,1017.85
2017-08-14T00:57:08.418Z,1017.84
2017-08-14T00:57:48.998Z,1017.85
2017-08-14T00:58:29.562Z,1017.85
2017-08-14T00:59:10.129Z,1017.84
2017-08-14T00:59:50.710Z,1017.87
2017-08-14T01:00:31.314Z,1017.83
2017-08-14T01:01:11.884Z,1017.85
2017-08-14T01:01:52.454Z,1017.83
2017-08-14T01:02:33.021Z,1017.89
2017-08-14T01:03:13.592Z,1017.86
2017-08-14T01:03:54.190Z,1017.81
2017-08-14T01:04:34.764Z,1017.85
2017-08-14T01:05:15.356Z,1017.85
2017-08-14T01:05:55.946Z,1017.86
2017-08-14T01:06:36.507Z,1017.88
2017-08-14T01:07:17.095Z,1017.86
2017-08-14T01:07:57.700Z,1017.88
2017-08-14T01:08:38.276Z,1017.91
2017-08-14T01:09:18.842Z,1017.9
2017-08-14T01:09:59.406Z,1017.87
2017-08-14T01:10:39.982Z,1017.89
2017-08-14T01:11:20.555Z,1017.86
2017-08-14T01:12:01.140Z,1017.89
2017-08-14T01:12:41.723Z,1017.9
2017-08-14T01:13:22.300Z,1017.88
2017-08-14T01:14:02.873Z,1017.93
2017-08-14T01:14:43.464Z,1017.88
2017-08-14T01:15:24.023Z,1017.88
2017-08-14T01:16:04.595Z,1017.91
2017-08-14T01:16:45.190Z,1017.92
2017-08-14T01:17:25.764Z,1017.93
2017-08-14T01:18:06.347Z,1017.93
2017-08-14T01:18:46.906Z,1017.94
2017-08-14T01:19:27.471Z,1017.94
2017-08-14T01:20:08.055Z,1017.91
2017-08-14T01:20:48.639Z,1017.97
2017-08-14T01:21:29.217Z,1017.96
2017-08-14T01:22:09.781Z,1017.98
2017-08-14T01:22:50.353Z,1017.98
2017-08-14T01:23:30.937Z,1017.96
2017-08-14T01:24:11.489Z,1017.95
2017-08-14T01:24:52.056Z,1017.98
2017-08-14T01:25:32.614Z,1017.95
2017-08-14T01:26:13.198Z,1017.94
2017-08-14T01:26:53.760Z,1017.92
2017-08-14T01:27:34.332Z,1017.97
2017-08-14T01:28:14.905Z,1017.95
2017-08-14T01:28:55.476Z,1017.95
2017-08-14T01:29:36.076Z,1017.99
2017-08-14T01:30:16.650Z,1017.95
2017-08-14T01:30:57.227Z,1017.99
2017-08-14T01:31:37.791Z,1018
2017-08-14T01:32:18.404Z,1017.97
2017-08-14T01:32:58.998Z,1017.97
2017-08-14T01:33:39.562Z,1018.09
2017-08-14T01:34:20.140Z,1018.03
2017-08-14T01:35:00.712Z,1018.01
2017-08-14T01:35:41.288Z,1018.01
2017-08-14T01:36:21.849Z,1018.06
2017-08-14T01:37:02.418Z,1018.05
2017-08-14T01:37:42.998Z,1018.02
2017-08-14T01:38:23.561Z,1018.04
2017-08-14T01:39:04.160Z,1018.04
2017-08-14T01:39:44.761Z,1018.03
2017-08-14T01:40:25.338Z,1018.02
2017-08-14T01:41:05.926Z,1018.07
2017-08-14T01:41:46.487Z,1018.03
2017-08-14T01:42:27.066Z,1018.06
2017-08-14T01:43:07.628Z,1018.06
2017-08-14T01:43:48.218Z,1018.06
2017-08-14T01:44:28.787Z,1018.09
2017-08-14T01:45:09.377Z,1018.08
2017-08-14T01:45:49.966Z,1018.08
2017-08-14T01:46:30.561Z,1018.07
2017-08-14T01:47:11.133Z,1018.11
2017-08-14T01:47:51.698Z,1018.08
2017-08-14T01:48:32.264Z,1018.1
2017-08-14T01:49:12.843Z,1018.11
2017-08-14T01:49:53.421Z,1018.09
2017-08-14T01:50:34.005Z,1018.09
2017-08-14T01:51:14.562Z,1018.1
2017-08-14T01:51:55.134Z,1018.12
2017-08-14T01:52:35.702Z,1018.1
2017-08-14T01:53:16.251Z,1018.09
2017-08-14T01:53:56.858Z,1018.09
2017-08-14T01:54:37.445Z,1018.12
2017-08-14T01:55:18.025Z,1018.07
2017-08-14T01:55:58.599Z,1018.07
2017-08-14T01:56:39.209Z,1018.08
2017-08-14T01:57:19.810Z,1018.08
2017-08-14T01:58:00.413Z,1018.08
2017-08-14T01:58:40.985Z,1018.1
2017-08-14T01:59:21.560Z,1018.07
2017-08-14T02:00:02.127Z,1018.12
2017-08-14T02:00:42.715Z,1018.09
2017-08-14T02:01:23.273Z,1018.1
2017-08-14T02:02:03.838Z,1018.09
2017-08-14T02:02:44.437Z,1018.07
2017-08-14T02:03:25.014Z,1018.08
2017-08-14T02:04:05.593Z,1018.08
2017-08-14T02:04:46.181Z,1018.13
2017-08-14T02:05:26.773Z,1018.09
2017-08-14T02:06:07.328Z,1018.1
2017-08-14T02:06:47.905Z,1018.12
2017-08-14T02:07:28.474Z,1018.11
2017-08-14T02:08:09.057Z,1018.12
2017-08-14T02:08:49.630Z,1018.11
2017-08-14T02:09:30.220Z,1018.12
2017-08-14T02:10:10.794Z,1018.12
2017-08-14T02:10:51.378Z,1018.13
2017-08-14T02:11:31.939Z,1018.13
2017-08-14T02:12:12.513Z,1018.13
2017-08-14T02:12:53.081Z,1018.12
2017-08-14T02:13:33.654Z,1018.1
2017-08-14T02:14:14.268Z,1018.09
2017-08-14T02:14:54.836Z,1018.12
2017-08-14T02:15:35.402Z,1018.08
2017-08-14T02:16:15.981Z,1018.08
2017-08-14T02:16:56.557Z,1018.09
2017-08-14T02:17:37.127Z,1018.07
2017-08-14T02:18:17.693Z,1018.07
2017-08-14T02:18:58.273Z,1018.08
2017-08-14T02:19:38.835Z,1018.08
2017-08-14T02:20:19.408Z,1018.08
2017-08-14T02:20:59.975Z,1018.09
2017-08-14T02:21:40.544Z,1018.08
2017-08-14T02:22:21.112Z,1018.04
2017-08-14T02:23:01.710Z,1018.08
2017-08-14T02:23:42.277Z,1018.06
2017-08-14T02:24:22.856Z,1018.06
2017-08-14T02:25:03.426Z,1018.07
2017-08-14T02:25:43.986Z,1018.11
2017-08-14T02:26:24.558Z,1018.11
2017-08-14T02:27:05.139Z,1018.14
2017-08-14T02:27:45.704Z,1018.14
2017-08-14T02:28:26.306Z,1018.1
2017-08-14T02:29:06.884Z,1018.16
2017-08-14T02:29:47.463Z,1018.13
2017-08-14T02:30:28.046Z,1018.14
2017-08-14T02:31:08.640Z,1018.13
2017-08-14T02:31:49.209Z,1018.14
2017-08-14T02:32:29.793Z,1018.17
2017-08-14T02:33:10.386Z,1018.17
2017-08-14T02:33:50.977Z,1018.15
2017-08-14T02:34:31.533Z,1018.14
2017-08-14T02:35:12.118Z,1018.21
2017-08-14T02:35:52.678Z,1018.18
2017-08-14T02:36:33.244Z,1018.17
2017-08-14T02:37:13.830Z,1018.14
2017-08-14T02:37:54.409Z,1018.17
2017-08-14T02:38:34.981Z,1018.1
2017-08-14T02:39:15.551Z,1018.12
2017-08-14T02:39:56.138Z,1018.11
2017-08-14T02:40:36.704Z,1018.11
2017-08-14T02:41:17.298Z,1018.09
2017-08-14T02:41:57.864Z,1018.11
2017-08-14T02:42:38.439Z,1018.1
2017-08-14T02:43:19.008Z,1018.13
2017-08-14T02:43:59.569Z,1018.11
2017-08-14T02:44:40.145Z,1018.18
2017-08-14T02:45:20.724Z,1018.15
2017-08-14T02:46:01.292Z,1018.21
2017-08-14T02:46:41.865Z,1018.2
2017-08-14T02:47:22.434Z,1018.18
2017-08-14T02:48:03.050Z,1018.21
2017-08-14T02:48:43.633Z,1018.2
2017-08-14T02:49:24.203Z,1018.18
2017-08-14T02:50:04.774Z,1018.2
2017-08-14T02:50:45.352Z,1018.23
2017-08-14T02:51:25.957Z,1018.18
2017-08-14T02:52:06.548Z,1018.19
2017-08-14T02:52:47.130Z,1018.19
2017-08-14T02:53:27.693Z,1018.2
2017-08-14T02:54:08.272Z,1018.16
2017-08-14T02:54:48.834Z,1018.2
2017-08-14T02:55:29.403Z,1018.19
2017-08-14T02:56:09.986Z,1018.18
2017-08-14T02:56:50.590Z,1018.18
2017-08-14T02:57:31.187Z,1018.2
2017-08-14T02:58:11.756Z,1018.16
2017-08-14T02:58:52.325Z,1018.18
2017-08-14T02:59:32.894Z,1018.26
2017-08-14T03:00:13.504Z,1018.21
2017-08-14T03:00:54.075Z,1018.19
2017-08-14T03:01:34.647Z,1018.21
2017-08-14T03:02:15.227Z,1018.19
2017-08-14T03:02:55.792Z,1018.17
2017-08-14T03:03:36.363Z,1018.2
2017-08-14T03:04:16.953Z,1018.19
2017-08-14T03:04:57.517Z,1018.19
2017-08-14T03:05:38.099Z,1018.17
2017-08-14T03:06:18.656Z,1018.18
2017-08-14T03:06:59.272Z,1018.2
2017-08-14T03:07:39.856Z,1018.17
2017-08-14T03:08:20.429Z,1018.2
2017-08-14T03:09:01.004Z,1018.23
2017-08-14T03:09:41.592Z,1018.23
2017-08-14T03:10:22.165Z,1018.26
2017-08-14T03:11:02.721Z,1018.24
2017-08-14T03:11:43.309Z,1018.3
2017-08-14T03:12:23.886Z,1018.29
2017-08-14T03:13:04.475Z,1018.31
2017-08-14T03:13:45.059Z,1018.31
2017-08-14T03:14:25.630Z,1018.31
2017-08-14T03:15:06.195Z,1018.31
2017-08-14T03:15:46.767Z,1018.3
2017-08-14T03:16:27.350Z,1018.31
2017-08-14T03:17:07.924Z,1018.3
2017-08-14T03:17:48.524Z,1018.32
2017-08-14T03:18:29.087Z,1018.32
2017-08-14T03:19:09.673Z,1018.33
2017-08-14T03:19:50.249Z,1018.34
2017-08-14T03:20:30.875Z,1018.35
2017-08-14T03:21:11.444Z,1018.31
2017-08-14T03:21:52.040Z,1018.35
2017-08-14T03:22:32.623Z,1018.34
2017-08-14T03:23:13.206Z,1018.32
2017-08-14T03:23:53.838Z,1018.37
2017-08-14T03:24:34.398Z,1018.34
2017-08-14T03:25:14.981Z,1018.32
2017-08-14T03:25:55.552Z,1018.31
2017-08-14T03:26:36.126Z,1018.31
2017-08-14T03:27:16.689Z,1018.31
2017-08-14T03:27:57.255Z,1018.32
2017-08-14T03:28:37.851Z,1018.32
2017-08-14T03:29:18.429Z,1018.34
2017-08-14T03:29:59.003Z,1018.32
2017-08-14T03:30:39.584Z,1018.34
2017-08-14T03:31:20.186Z,1018.36
2017-08-14T03:32:00.759Z,1018.38
2017-08-14T03:32:41.323Z,1018.37
2017-08-14T03:33:21.905Z,1018.34
2017-08-14T03:34:02.501Z,1018.34
2017-08-14T03:34:43.065Z,1018.32
2017-08-14T03:35:23.636Z,1018.34
2017-08-14T03:36:04.215Z,1018.34
2017-08-14T03:36:44.795Z,1018.34
2017-08-14T03:37:25.377Z,1018.36
2017-08-14T03:38:05.966Z,1018.34
2017-08-14T03:38:46.523Z,1018.33
2017-08-14T03:39:27.109Z,1018.29
2017-08-14T03:40:07.675Z,1018.31
2017-08-14T03:40:48.262Z,1018.35
2017-08-14T03:41:28.834Z,1018.31
2017-08-14T03:42:09.417Z,1018.3
2017-08-14T03:42:49.996Z,1018.31
2017-08-14T03:43:30.577Z,1018.31
2017-08-14T03:44:11.173Z,1018.32
2017-08-14T03:44:51.737Z,1018.31
2017-08-14T03:45:32.307Z,1018.33
2017-08-14T03:46:12.888Z,1018.3
2017-08-14T03:46:53.448Z,1018.28
2017-08-14T03:47:34.016Z,1018.31
2017-08-14T03:48:14.588Z,1018.31
2017-08-14T03:48:55.169Z,1018.32
2017-08-14T03:49:35.747Z,1018.34
2017-08-14T03:50:16.324Z,1018.32
2017-08-14T03:50:56.928Z,1018.34
2017-08-14T03:51:37.524Z,1018.32
2017-08-14T03:52:18.140Z,1018.33
2017-08-14T03:52:58.721Z,1018.35
2017-08-14T03:53:39.280Z,1018.34
2017-08-14T03:54:19.877Z,1018.33
2017-08-14T03:55:00.464Z,1018.35
2017-08-14T03:55:41.036Z,1018.33
2017-08-14T03:56:21.610Z,1018.3
2017-08-14T03:57:02.184Z,1018.37
2017-08-14T03:57:42.744Z,1018.31
2017-08-14T03:58:23.306Z,1018.34
2017-08-14T03:59:03.874Z,1018.34
2017-08-14T03:59:44.444Z,1018.35
2017-08-14T04:00:25.018Z,1018.34
2017-08-14T04:01:05.607Z,1018.37
2017-08-14T04:01:46.178Z,1018.35
2017-08-14T04:02:26.748Z,1018.35
2017-08-14T04:03:07.327Z,1018.37
2017-08-14T04:03:47.915Z,1018.39
2017-08-14T04:04:28.488Z,1018.42
2017-08-14T04:05:09.056Z,1018.42
2017-08-14T04:05:49.631Z,1018.4
2017-08-14T04:06:30.206Z,1018.38
2017-08-14T04:07:10.779Z,1018.4
2017-08-14T04:07:51.347Z,1018.41
2017-08-14T04:08:31.909Z,1018.38
2017-08-14T04:09:12.500Z,1018.38
2017-08-14T04:09:53.068Z,1018.41
2017-08-14T04:10:33.646Z,1018.41
2017-08-14T04:11:14.201Z,1018.41
2017-08-14T04:11:54.780Z,1018.37
2017-08-14T04:12:35.366Z,1018.42
2017-08-14T04:13:15.972Z,1018.43
2017-08-14T04:13:56.552Z,1018.43
2017-08-14T04:14:37.123Z,1018.46
2017-08-14T04:15:17.727Z,1018.47
2017-08-14T04:15:58.310Z,1018.46
2017-08-14T04:16:38.925Z,1018.42
2017-08-14T04:17:19.494Z,1018.43
2017-08-14T04:18:00.213Z,1018.46
2017-08-14T04:18:40.845Z,1018.41
2017-08-14T04:19:21.415Z,1018.42
2017-08-14T04:20:01.993Z,1018.44
2017-08-14T04:20:42.570Z,1018.45
2017-08-14T04:21:23.153Z,1018.43
2017-08-14T04:22:03.730Z,1018.45
2017-08-14T04:22:44.309Z,1018.45
2017-08-14T04:23:24.892Z,1018.49
2017-08-14T04:24:05.476Z,1018.43
2017-08-14T04:24:46.044Z,1018.47
2017-08-14T04:25:26.646Z,1018.45
2017-08-14T04:26:07.225Z,1018.49
2017-08-14T04:26:47.808Z,1018.48
2017-08-14T04:27:28.394Z,1018.5
2017-08-14T04:28:08.985Z,1018.47
2017-08-14T04:28:49.581Z,1018.49
2017-08-14T04:29:30.155Z,1018.51
2017-08-14T04:30:10.778Z,1018.5
2017-08-14T04:30:51.354Z,1018.51
2017-08-14T04:31:31.950Z,1018.51
2017-08-14T04:32:12.536Z,1018.55
2017-08-14T04:32:53.106Z,1018.51
2017-08-14T04:33:33.671Z,1018.52
2017-08-14T04:34:14.253Z,1018.52
2017-08-14T04:34:54.819Z,1018.51
2017-08-14T04:35:35.384Z,1018.53
2017-08-14T04:36:15.967Z,1018.5
2017-08-14T04:36:56.568Z,1018.51
2017-08-14T04:37:37.179Z,1018.52
2017-08-14T04:38:17.766Z,1018.53
2017-08-14T04:38:58.330Z,1018.56
2017-08-14T04:39:38.917Z,1018.6
2017-08-14T04:40:19.494Z,1018.59
2017-08-14T04:41:00.065Z,1018.57
2017-08-14T04:41:40.648Z,1018.61
2017-08-14T04:42:21.218Z,1018.59
2017-08-14T04:43:01.798Z,1018.6
2017-08-14T04:43:42.382Z,1018.61
2017-08-14T04:44:22.953Z,1018.64
2017-08-14T04:45:03.535Z,1018.64
2017-08-14T04:45:44.101Z,1018.61
2017-08-14T04:46:24.671Z,1018.64
2017-08-14T04:47:05.258Z,1018.65
2017-08-14T04:47:45.830Z,1018.67
2017-08-14T04:48:26.402Z,1018.64
2017-08-14T04:49:06.995Z,1018.67
2017-08-14T04:49:47.609Z,1018.67
2017-08-14T04:50:28.191Z,1018.67
2017-08-14T04:51:08.776Z,1018.68
2017-08-14T04:51:49.372Z,1018.71
2017-08-14T04:52:29.967Z,1018.66
2017-08-14T04:53:10.534Z,1018.68
2017-08-14T04:53:51.130Z,1018.68
2017-08-14T04:54:31.714Z,1018.71
2017-08-14T04:55:12.286Z,1018.73
2017-08-14T04:55:52.871Z,1018.74
2017-08-14T04:56:33.465Z,1018.69
2017-08-14T04:57:14.037Z,1018.72
2017-08-14T04:57:54.616Z,1018.73
2017-08-14T04:58:35.190Z,1018.75
2017-08-14T04:59:15.747Z,1018.72
2017-08-14T04:59:56.334Z,1018.75
2017-08-14T05:00:36.924Z,1018.74
2017-08-14T05:01:17.478Z,1018.73
2017-08-14T05:01:58.042Z,1018.73
2017-08-14T05:02:38.631Z,1018.71
2017-08-14T05:03:19.206Z,1018.7
2017-08-14T05:03:59.764Z,1018.74
2017-08-14T05:04:40.348Z,1018.72
2017-08-14T05:05:20.927Z,1018.73
2017-08-14T05:06:01.510Z,1018.73
2017-08-14T05:06:42.104Z,1018.72
2017-08-14T05:07:22.665Z,1018.72
2017-08-14T05:08:03.233Z,1018.76
2017-08-14T05:08:43.799Z,1018.74
2017-08-14T05:09:24.384Z,1018.72
2017-08-14T05:10:05.015Z,1018.73
2017-08-14T05:10:45.562Z,1018.71
2017-08-14T05:11:26.139Z,1018.71
2017-08-14T05:12:06.703Z,1018.76
2017-08-14T05:12:47.267Z,1018.73
2017-08-14T05:13:27.824Z,1018.77
2017-08-14T05:14:08.409Z,1018.8
2017-08-14T05:14:48.973Z,1018.8
2017-08-14T05:15:29.569Z,1018.84
2017-08-14T05:16:10.154Z,1018.84
2017-08-14T05:16:50.728Z,1018.81
2017-08-14T05:17:31.295Z,1018.85
2017-08-14T05:18:11.867Z,1018.83
2017-08-14T05:18:52.450Z,1018.82
2017-08-14T05:19:33.022Z,1018.86
2017-08-14T05:20:13.582Z,1018.89
2017-08-14T05:20:54.167Z,1018.82
2017-08-14T05:21:34.775Z,1018.84
2017-08-14T05:22:15.330Z,1018.83
2017-08-14T05:22:55.922Z,1018.83
2017-08-14T05:23:36.480Z,1018.83
2017-08-14T05:24:17.064Z,1018.82
2017-08-14T05:24:57.641Z,1018.84
2017-08-14T05:25:38.220Z,1018.84
2017-08-14T05:26:18.801Z,1018.83
2017-08-14T05:26:59.373Z,1018.88
2017-08-14T05:27:39.933Z,1018.81
2017-08-14T05:28:20.527Z,1018.85
2017-08-14T05:29:01.117Z,1018.83
2017-08-14T05:29:41.686Z,1018.84
2017-08-14T05:30:22.294Z,1018.83
2017-08-14T05:31:02.881Z,1018.88
2017-08-14T05:31:43.456Z,1018.87
2017-08-14T05:32:24.041Z,1018.86
2017-08-14T05:33:04.626Z,1018.9
2017-08-14T05:33:45.216Z,1018.87
2017-08-14T05:34:25.798Z,1018.89
2017-08-14T05:35:06.401Z,1018.88
2017-08-14T05:35:47.000Z,1018.87
2017-08-14T05:36:27.626Z,1018.88
2017-08-14T05:37:08.194Z,1018.85
2017-08-14T05:37:48.762Z,1018.85
2017-08-14T05:38:29.364Z,1018.83
2017-08-14T05:39:09.929Z,1018.87
2017-08-14T05:39:50.516Z,1018.86
2017-08-14T05:40:31.097Z,1018.86
2017-08-14T05:41:11.671Z,1018.87
2017-08-14T05:41:52.235Z,1018.85
2017-08-14T05:42:32.809Z,1018.84
2017-08-14T05:43:13.366Z,1018.89
2017-08-14T05:43:53.940Z,1018.89
2017-08-14T05:44:34.518Z,1018.9
2017-08-14T05:45:15.150Z,1018.88
2017-08-14T05:45:55.732Z,1018.88
2017-08-14T05:46:36.287Z,1018.88
2017-08-14T05:47:16.862Z,1018.93
2017-08-14T05:47:57.434Z,1018.9
2017-08-14T05:48:38.011Z,1018.89
2017-08-14T05:49:18.585Z,1018.89
2017-08-14T05:49:59.150Z,1018.9
2017-08-14T05:50:39.751Z,1018.88
2017-08-14T05:51:20.330Z,1018.91
2017-08-14T05:52:00.920Z,1018.93
2017-08-14T05:52:41.493Z,1018.87
2017-08-14T05:53:22.084Z,1018.85
2017-08-14T05:54:02.651Z,1018.87
2017-08-14T05:54:43.216Z,1018.88
2017-08-14T05:55:23.795Z,1018.85
2017-08-14T05:56:04.397Z,1018.95
2017-08-14T05:56:44.978Z,1019.02
2017-08-14T05:57:25.568Z,1018.98
2017-08-14T05:58:06.138Z,1019.01
2017-08-14T05:58:46.714Z,1019.01
2017-08-14T05:59:27.283Z,1019.03
2017-08-14T06:00:07.874Z,1019.04
2017-08-14T06:00:48.452Z,1019.01
2017-08-14T06:01:29.022Z,1019.01
2017-08-14T06:02:09.592Z,1019.06
2017-08-14T06:02:50.159Z,1019.1
2017-08-14T06:03:30.729Z,1019.1
2017-08-14T06:04:13.000Z,1019.15
2017-08-14T06:04:53.572Z,1019.1
2017-08-14T06:05:34.139Z,1019.12
2017-08-14T06:06:14.711Z,1019.09
2017-08-14T06:06:55.291Z,1019.14
2017-08-14T06:07:35.855Z,1019.16
2017-08-14T06:08:16.421Z,1019.17
2017-08-14T06:08:57.005Z,1019.2
2017-08-14T06:09:37.587Z,1019.2
2017-08-14T06:10:18.179Z,1019.21
2017-08-14T06:10:58.766Z,1019.21
2017-08-14T06:11:39.345Z,1019.2
2017-08-14T06:12:19.921Z,1019.24
2017-08-14T06:13:00.514Z,1019.21
2017-08-14T06:13:41.103Z,1019.24
2017-08-14T06:14:21.687Z,1019.25
2017-08-14T06:15:02.251Z,1019.22
2017-08-14T06:15:42.824Z,1019.24
2017-08-14T06:16:23.406Z,1019.24
2017-08-14T06:17:04.013Z,1019.26
2017-08-14T06:17:44.578Z,1019.28
2017-08-14T06:18:25.164Z,1019.27
2017-08-14T06:19:05.736Z,1019.27
2017-08-14T06:19:46.339Z,1019.29
2017-08-14T06:20:26.901Z,1019.31
2017-08-14T06:21:07.473Z,1019.28
2017-08-14T06:21:48.058Z,1019.31
2017-08-14T06:22:28.630Z,1019.31
2017-08-14T06:23:09.214Z,1019.29
2017-08-14T06:23:49.819Z,1019.26
2017-08-14T06:24:30.466Z,1019.25
2017-08-14T06:25:11.037Z,1019.29
2017-08-14T06:25:51.607Z,1019.26
2017-08-14T06:26:32.189Z,1019.27
2017-08-14T06:27:12.757Z,1019.28
2017-08-14T06:27:53.334Z,1019.29
2017-08-14T06:28:33.912Z,1019.28
2017-08-14T06:29:14.505Z,1019.3
2017-08-14T06:29:55.071Z,1019.32
2017-08-14T06:30:35.648Z,1019.31
2017-08-14T06:31:16.243Z,1019.3
2017-08-14T06:31:56.835Z,1019.35
2017-08-14T06:32:37.409Z,1019.37
2017-08-14T06:33:17.982Z,1019.35
2017-08-14T06:33:58.579Z,1019.39
2017-08-14T06:34:39.159Z,1019.36
2017-08-14T06:35:19.749Z,1019.38
2017-08-14T06:36:00.345Z,1019.39
2017-08-14T06:36:40.945Z,1019.37
2017-08-14T06:37:21.533Z,1019.41
2017-08-14T06:38:02.102Z,1019.43
2017-08-14T06:38:42.715Z,1019.4
2017-08-14T06:39:23.316Z,1019.41
2017-08-14T06:40:03.889Z,1019.43
2017-08-14T06:40:44.483Z,1019.43
2017-08-14T06:41:25.074Z,1019.41
2017-08-14T06:42:05.659Z,1019.44
2017-08-14T06:42:46.233Z,1019.43
2017-08-14T06:43:26.825Z,1019.44
2017-08-14T06:44:07.437Z,1019.43
2017-08-14T06:44:48.015Z,1019.45
2017-08-14T06:45:28.603Z,1019.51
2017-08-14T06:46:09.192Z,1019.44
2017-08-14T06:46:49.841Z,1019.46
2017-08-14T06:47:30.434Z,1019.44
2017-08-14T06:48:11.039Z,1019.43
2017-08-14T06:48:51.625Z,1019.47
2017-08-14T06:49:32.219Z,1019.48
2017-08-14T06:50:12.802Z,1019.48
2017-08-14T06:50:53.383Z,1019.5
2017-08-14T06:51:33.965Z,1019.53
2017-08-14T06:52:14.563Z,1019.52
2017-08-14T06:52:55.146Z,1019.49
2017-08-14T06:53:35.730Z,1019.52
2017-08-14T06:54:16.303Z,1019.52
2017-08-14T06:54:56.890Z,1019.52
2017-08-14T06:55:37.513Z,1019.53
2017-08-14T06:56:18.099Z,1019.51
2017-08-14T06:56:58.690Z,1019.53
2017-08-14T06:57:39.272Z,1019.53
2017-08-14T06:58:19.863Z,1019.51
2017-08-14T06:59:00.439Z,1019.52
2017-08-14T06:59:41.026Z,1019.55
2017-08-14T07:00:21.620Z,1019.53
2017-08-14T07:01:02.186Z,1019.53
2017-08-14T07:01:42.776Z,1019.54
2017-08-14T07:02:23.349Z,1019.55
2017-08-14T07:03:03.953Z,1019.55
2017-08-14T07:03:44.537Z,1019.53
2017-08-14T07:04:25.120Z,1019.55
2017-08-14T07:05:05.736Z,1019.61
2017-08-14T07:05:46.321Z,1019.56
2017-08-14T07:06:26.913Z,1019.59
2017-08-14T07:07:07.489Z,1019.6
2017-08-14T07:07:48.083Z,1019.56
2017-08-14T07:08:28.678Z,1019.57
2017-08-14T07:09:09.273Z,1019.61
2017-08-14T07:09:49.850Z,1019.63
2017-08-14T07:10:30.421Z,1019.62
2017-08-14T07:11:10.991Z,1019.62
2017-08-14T07:11:51.596Z,1019.67
2017-08-14T07:12:32.203Z,1019.65
2017-08-14T07:13:12.794Z,1019.65
2017-08-14T07:13:53.380Z,1019.64
2017-08-14T07:14:33.995Z,1019.61
2017-08-14T07:15:14.609Z,1019.64
2017-08-14T07:15:55.187Z,1019.64
2017-08-14T07:16:35.776Z,1019.63
2017-08-14T07:17:16.360Z,1019.59
2017-08-14T07:17:56.947Z,1019.64
2017-08-14T07:18:37.520Z,1019.62
2017-08-14T07:19:18.112Z,1019.64
2017-08-14T07:19:58.706Z,1019.65
2017-08-14T07:20:39.287Z,1019.65
2017-08-14T07:21:19.866Z,1019.67
2017-08-14T07:22:00.454Z,1019.65
2017-08-14T07:22:41.029Z,1019.66
2017-08-14T07:23:21.612Z,1019.65
2017-08-14T07:24:02.224Z,1019.68
2017-08-14T07:24:42.805Z,1019.68
2017-08-14T07:25:23.393Z,1019.69
2017-08-14T07:26:03.981Z,1019.69
2017-08-14T07:26:44.572Z,1019.69
2017-08-14T07:27:25.151Z,1019.69
2017-08-14T07:28:05.757Z,1019.65
2017-08-14T07:28:46.350Z,1019.64
2017-08-14T07:29:26.945Z,1019.62
2017-08-14T07:30:07.518Z,1019.67
2017-08-14T07:30:48.091Z,1019.68
2017-08-14T07:31:28.681Z,1019.66
2017-08-14T07:32:09.266Z,1019.69
2017-08-14T07:32:49.846Z,1019.72
2017-08-14T07:33:30.428Z,1019.69
2017-08-14T07:34:11.001Z,1019.69
2017-08-14T07:34:51.579Z,1019.69
2017-08-14T07:35:32.166Z,1019.69
2017-08-14T07:36:12.764Z,1019.72
2017-08-14T07:36:53.347Z,1019.72
2017-08-14T07:37:33.933Z,1019.71
2017-08-14T07:38:14.517Z,1019.74
2017-08-14T07:38:55.101Z,1019.71
2017-08-14T07:39:35.681Z,1019.68
2017-08-14T07:40:16.276Z,1019.71
2017-08-14T07:40:56.861Z,1019.73
2017-08-14T07:41:37.442Z,1019.74
2017-08-14T07:42:18.022Z,1019.73
2017-08-14T07:42:58.628Z,1019.73
2017-08-14T07:43:39.195Z,1019.72
2017-08-14T07:44:19.774Z,1019.71
2017-08-14T07:45:00.348Z,1019.72
2017-08-14T07:45:40.948Z,1019.75
2017-08-14T07:46:21.535Z,1019.75
2017-08-14T07:47:02.119Z,1019.73
2017-08-14T07:47:42.701Z,1019.75
2017-08-14T07:48:23.284Z,1019.75
2017-08-14T07:49:03.890Z,1019.76
2017-08-14T07:49:44.495Z,1019.75
2017-08-14T07:50:25.079Z,1019.77
2017-08-14T07:51:05.686Z,1019.73
2017-08-14T07:51:46.283Z,1019.78
2017-08-14T07:52:26.870Z,1019.76
2017-08-14T07:53:07.473Z,1019.79
2017-08-14T07:53:48.053Z,1019.79
2017-08-14T07:54:28.664Z,1019.82
2017-08-14T07:55:09.250Z,1019.79
2017-08-14T07:55:49.830Z,1019.79
2017-08-14T07:56:30.417Z,1019.8
2017-08-14T07:57:10.991Z,1019.79
2017-08-14T07:57:51.581Z,1019.77
2017-08-14T07:58:32.164Z,1019.8
2017-08-14T07:59:12.751Z,1019.77
2017-08-14T07:59:53.332Z,1019.74
2017-08-14T08:00:33.913Z,1019.74
2017-08-14T08:01:14.508Z,1019.77
2017-08-14T08:01:55.105Z,1019.73
2017-08-14T08:02:35.684Z,1019.73
2017-08-14T08:03:16.271Z,1019.73
2017-08-14T08:03:56.852Z,1019.79
2017-08-14T08:04:37.462Z,1019.75
2017-08-14T08:05:18.062Z,1019.76
2017-08-14T08:05:58.636Z,1019.74
2017-08-14T08:06:39.230Z,1019.75
2017-08-14T08:07:19.839Z,1019.68
2017-08-14T08:08:00.423Z,1019.69
2017-08-14T08:08:41.013Z,1019.71
2017-08-14T08:09:21.595Z,1019.71
2017-08-14T08:10:02.196Z,1019.69
2017-08-14T08:10:42.791Z,1019.7
2017-08-14T08:11:23.406Z,1019.71
2017-08-14T08:12:04.030Z,1019.69